PWSweather.com
Personal Weather Stations
Station Observations
WD4JKH
Forsyth, GA 31029

Forsyth, GA 31029

Lat: 33.033225, Lon: -83.927995

Elevation: 709

Station Type: Davis Vantage VUE

High Low Average
Temperature 45.5°F7.5°C 40.5°F4.7°C 42.6°F5.9°C
Dew Point 40.3°F4.6°C 26.3°F-3.2°C 33.3°F0.7°C
Winds 10.2 mph 16.4 kmh 1.2 mph 1.9 kmh 5.0 mph ENE8.0 kmh ENE
Wind Gusts 17.0 mph27.4 kmh 7.0 mph11.3 kmh 11.0 mph17.7 kmh
Humidity 95% 55% 70%
Pressure 30.36 in1028.1 mb 30.13 in1020.3 mb -
Precipitation 0.08 in2.0 mm - -
Hour Temp Dew Point Humidity Winds Wind Gusts Pressure Precip Precip Rate Daily Precip Total
12:02 AM 42.3°F5.7°C 26.8°F-2.9°C 54% 4.3 mph E6.9 kmh E 8.0 mph12.9 kmh 30.33 in1027.1 mb 0.00 in0.0 mm 0.00 in0.0 mm 0.00 in0.0 mm
12:07 AM 42.2°F5.7°C 27.2°F-2.7°C 55% 3.1 mph E5.0 kmh E 8.0 mph12.9 kmh 30.33 in1027.1 mb 0.00 in0.0 mm 0.00 in0.0 mm 0.00 in0.0 mm
12:12 AM 42.1°F5.6°C 27.1°F-2.7°C 55% 2.9 mph E4.7 kmh E 8.0 mph12.9 kmh 30.33 in1027.1 mb 0.00 in0.0 mm 0.00 in0.0 mm 0.00 in0.0 mm
12:17 AM 42.0°F5.6°C 27.0°F-2.8°C 55% 3.4 mph E5.5 kmh E 7.0 mph11.3 kmh 30.33 in1027.1 mb 0.00 in0.0 mm 0.00 in0.0 mm 0.00 in0.0 mm
12:22 AM 42.0°F5.6°C 26.6°F-3.0°C 54% 4.2 mph E6.8 kmh E 7.0 mph11.3 kmh 30.33 in1027.1 mb 0.00 in0.0 mm 0.00 in0.0 mm 0.00 in0.0 mm
12:27 AM 41.9°F5.5°C 26.4°F-3.1°C 54% 3.5 mph E5.6 kmh E 7.0 mph11.3 kmh 30.32 in1026.8 mb 0.00 in0.0 mm 0.00 in0.0 mm 0.00 in0.0 mm
12:32 AM 41.9°F5.5°C 26.4°F-3.1°C 54% 3.7 mph E6.0 kmh E 7.0 mph11.3 kmh 30.33 in1027.1 mb 0.00 in0.0 mm 0.00 in0.0 mm 0.00 in0.0 mm
12:37 AM 41.8°F5.4°C 26.4°F-3.1°C 54% 3.8 mph E6.1 kmh E 7.0 mph11.3 kmh 30.32 in1026.8 mb 0.00 in0.0 mm 0.00 in0.0 mm 0.00 in0.0 mm
12:42 AM 41.7°F5.4°C 26.7°F-2.9°C 55% 4.7 mph E7.6 kmh E 9.0 mph14.5 kmh 30.32 in1026.8 mb 0.00 in0.0 mm 0.00 in0.0 mm 0.00 in0.0 mm
12:47 AM 41.6°F5.3°C 26.6°F-3.0°C 55% 4.4 mph E7.1 kmh E 9.0 mph14.5 kmh 30.32 in1026.8 mb 0.00 in0.0 mm 0.00 in0.0 mm 0.00 in0.0 mm
12:52 AM 41.5°F5.3°C 26.5°F-3.1°C 55% 4.4 mph E7.1 kmh E 10.0 mph16.1 kmh 30.32 in1026.8 mb 0.00 in0.0 mm 0.00 in0.0 mm 0.00 in0.0 mm
12:57 AM 41.4°F5.2°C 26.4°F-3.1°C 55% 2.8 mph E4.5 kmh E 10.0 mph16.1 kmh 30.32 in1026.8 mb 0.00 in0.0 mm 0.00 in0.0 mm 0.00 in0.0 mm
01:02 AM 41.4°F5.2°C 26.5°F-3.1°C 55% 3.0 mph E4.8 kmh E 10.0 mph16.1 kmh 30.32 in1026.8 mb 0.00 in0.0 mm 0.00 in0.0 mm 0.00 in0.0 mm
01:07 AM 41.3°F5.2°C 26.4°F-3.1°C 55% 2.9 mph E4.7 kmh E 9.0 mph14.5 kmh 30.32 in1026.8 mb 0.00 in0.0 mm 0.00 in0.0 mm 0.00 in0.0 mm
01:12 AM 41.2°F5.1°C 26.3°F-3.2°C 55% 2.4 mph E3.9 kmh E 9.0 mph14.5 kmh 30.32 in1026.8 mb 0.00 in0.0 mm 0.00 in0.0 mm 0.00 in0.0 mm
01:17 AM 41.2°F5.1°C 26.3°F-3.2°C 55% 3.8 mph E6.1 kmh E 9.0 mph14.5 kmh 30.32 in1026.8 mb 0.00 in0.0 mm 0.00 in0.0 mm 0.00 in0.0 mm
01:22 AM 41.3°F5.2°C 26.4°F-3.1°C 55% 5.1 mph ENE8.2 kmh ENE 9.0 mph14.5 kmh 30.32 in1026.8 mb 0.00 in0.0 mm 0.00 in0.0 mm 0.00 in0.0 mm
01:27 AM 41.3°F5.2°C 26.8°F-2.9°C 56% 3.7 mph E6.0 kmh E 9.0 mph14.5 kmh 30.32 in1026.8 mb 0.00 in0.0 mm 0.00 in0.0 mm 0.00 in0.0 mm
01:32 AM 41.3°F5.2°C 26.8°F-2.9°C 56% 3.2 mph E5.1 kmh E 9.0 mph14.5 kmh 30.32 in1026.8 mb 0.00 in0.0 mm 0.00 in0.0 mm 0.00 in0.0 mm
01:37 AM 41.3°F5.2°C 26.8°F-2.9°C 56% 5.1 mph E8.2 kmh E 9.0 mph14.5 kmh 30.33 in1027.1 mb 0.00 in0.0 mm 0.00 in0.0 mm 0.00 in0.0 mm
01:42 AM 41.3°F5.2°C 26.8°F-2.9°C 56% 2.7 mph E4.3 kmh E 8.0 mph12.9 kmh 30.33 in1027.1 mb 0.00 in0.0 mm 0.00 in0.0 mm 0.00 in0.0 mm
01:47 AM 41.3°F5.2°C 26.8°F-2.9°C 56% 4.1 mph E6.6 kmh E 10.0 mph16.1 kmh 30.32 in1026.8 mb 0.00 in0.0 mm 0.00 in0.0 mm 0.00 in0.0 mm
01:52 AM 41.3°F5.2°C 26.8°F-2.9°C 56% 6.3 mph E10.1 kmh E 10.0 mph16.1 kmh 30.32 in1026.8 mb 0.00 in0.0 mm 0.00 in0.0 mm 0.00 in0.0 mm
01:57 AM 41.3°F5.2°C 26.8°F-2.9°C 56% 5.3 mph E8.5 kmh E 10.0 mph16.1 kmh 30.32 in1026.8 mb 0.00 in0.0 mm 0.00 in0.0 mm 0.00 in0.0 mm
02:02 AM 41.2°F5.1°C 26.7°F-2.9°C 56% 6.9 mph E11.1 kmh E 12.0 mph19.3 kmh 30.32 in1026.8 mb 0.00 in0.0 mm 0.00 in0.0 mm 0.00 in0.0 mm
02:07 AM 41.2°F5.1°C 26.7°F-2.9°C 56% 5.1 mph E8.2 kmh E 12.0 mph19.3 kmh 30.32 in1026.8 mb 0.00 in0.0 mm 0.00 in0.0 mm 0.00 in0.0 mm
02:12 AM 41.2°F5.1°C 26.7°F-2.9°C 56% 6.1 mph E9.8 kmh E 12.0 mph19.3 kmh 30.32 in1026.8 mb 0.00 in0.0 mm 0.00 in0.0 mm 0.00 in0.0 mm
02:17 AM 41.1°F5.1°C 26.6°F-3.0°C 56% 5.0 mph ENE8.0 kmh ENE 12.0 mph19.3 kmh 30.32 in1026.8 mb 0.00 in0.0 mm 0.00 in0.0 mm 0.00 in0.0 mm
02:22 AM 41.0°F5.0°C 26.5°F-3.1°C 56% 5.1 mph ENE8.2 kmh ENE 11.0 mph17.7 kmh 30.32 in1026.8 mb 0.00 in0.0 mm 0.00 in0.0 mm 0.00 in0.0 mm
02:27 AM 40.9°F4.9°C 26.9°F-2.8°C 57% 4.7 mph E7.6 kmh E 11.0 mph17.7 kmh 30.32 in1026.8 mb 0.00 in0.0 mm 0.00 in0.0 mm 0.00 in0.0 mm
02:32 AM 40.9°F4.9°C 26.8°F-2.9°C 57% 4.8 mph E7.7 kmh E 11.0 mph17.7 kmh 30.32 in1026.8 mb 0.00 in0.0 mm 0.00 in0.0 mm 0.00 in0.0 mm
02:37 AM 40.8°F4.9°C 26.8°F-2.9°C 57% 4.4 mph E7.1 kmh E 10.0 mph16.1 kmh 30.32 in1026.8 mb 0.00 in0.0 mm 0.00 in0.0 mm 0.00 in0.0 mm
02:42 AM 40.9°F4.9°C 26.9°F-2.8°C 57% 3.3 mph E5.3 kmh E 10.0 mph16.1 kmh 30.32 in1026.8 mb 0.00 in0.0 mm 0.00 in0.0 mm 0.00 in0.0 mm
02:47 AM 40.9°F4.9°C 26.9°F-2.8°C 57% 3.3 mph E5.3 kmh E 10.0 mph16.1 kmh 30.33 in1027.1 mb 0.00 in0.0 mm 0.00 in0.0 mm 0.00 in0.0 mm
02:52 AM 40.9°F4.9°C 26.9°F-2.8°C 57% 4.7 mph E7.6 kmh E 10.0 mph16.1 kmh 30.33 in1027.1 mb 0.00 in0.0 mm 0.00 in0.0 mm 0.00 in0.0 mm
02:57 AM 40.9°F4.9°C 27.2°F-2.7°C 58% 2.7 mph E4.3 kmh E 10.0 mph16.1 kmh 30.33 in1027.1 mb 0.00 in0.0 mm 0.00 in0.0 mm 0.00 in0.0 mm
03:02 AM 40.9°F4.9°C 26.9°F-2.8°C 57% 3.7 mph E6.0 kmh E 9.0 mph14.5 kmh 30.33 in1027.1 mb 0.00 in0.0 mm 0.00 in0.0 mm 0.00 in0.0 mm
03:07 AM 40.9°F4.9°C 26.9°F-2.8°C 57% 3.8 mph E6.1 kmh E 9.0 mph14.5 kmh 30.33 in1027.1 mb 0.00 in0.0 mm 0.00 in0.0 mm 0.00 in0.0 mm
03:12 AM 40.9°F4.9°C 27.3°F-2.6°C 58% 4.1 mph E6.6 kmh E 8.0 mph12.9 kmh 30.33 in1027.1 mb 0.00 in0.0 mm 0.00 in0.0 mm 0.00 in0.0 mm
03:17 AM 40.9°F4.9°C 26.8°F-2.9°C 57% 3.3 mph E5.3 kmh E 8.0 mph12.9 kmh 30.33 in1027.1 mb 0.00 in0.0 mm 0.00 in0.0 mm 0.00 in0.0 mm
03:22 AM 40.9°F4.9°C 26.9°F-2.8°C 57% 3.9 mph E6.3 kmh E 11.0 mph17.7 kmh 30.33 in1027.1 mb 0.00 in0.0 mm 0.00 in0.0 mm 0.00 in0.0 mm
03:27 AM 40.9°F4.9°C 27.3°F-2.6°C 58% 4.8 mph E7.7 kmh E 11.0 mph17.7 kmh 30.33 in1027.1 mb 0.00 in0.0 mm 0.00 in0.0 mm 0.00 in0.0 mm
03:32 AM 40.9°F4.9°C 27.3°F-2.6°C 58% 5.3 mph ENE8.5 kmh ENE 11.0 mph17.7 kmh 30.33 in1027.1 mb 0.00 in0.0 mm 0.00 in0.0 mm 0.00 in0.0 mm
03:37 AM 40.9°F4.9°C 27.3°F-2.6°C 58% 2.7 mph E4.3 kmh E 11.0 mph17.7 kmh 30.34 in1027.4 mb 0.00 in0.0 mm 0.00 in0.0 mm 0.00 in0.0 mm
03:42 AM 40.9°F4.9°C 27.2°F-2.7°C 58% 5.2 mph E8.4 kmh E 11.0 mph17.7 kmh 30.33 in1027.1 mb 0.00 in0.0 mm 0.00 in0.0 mm 0.00 in0.0 mm
03:47 AM 40.9°F4.9°C 26.8°F-2.9°C 57% 6.3 mph E10.1 kmh E 11.0 mph17.7 kmh 30.33 in1027.1 mb 0.00 in0.0 mm 0.00 in0.0 mm 0.00 in0.0 mm
03:52 AM 40.9°F4.9°C 26.9°F-2.8°C 57% 5.2 mph E8.4 kmh E 10.0 mph16.1 kmh 30.33 in1027.1 mb 0.00 in0.0 mm 0.00 in0.0 mm 0.00 in0.0 mm
03:57 AM 40.9°F4.9°C 26.9°F-2.8°C 57% 4.7 mph E7.6 kmh E 10.0 mph16.1 kmh 30.33 in1027.1 mb 0.00 in0.0 mm 0.00 in0.0 mm 0.00 in0.0 mm
04:01 AM 40.9°F4.9°C 26.9°F-2.8°C 57% 4.5 mph E7.2 kmh E 10.0 mph16.1 kmh 30.33 in1027.1 mb 0.00 in0.0 mm 0.00 in0.0 mm 0.00 in0.0 mm
04:06 AM 41.0°F5.0°C 27.0°F-2.8°C 57% 4.3 mph ENE6.9 kmh ENE 9.0 mph14.5 kmh 30.33 in1027.1 mb 0.00 in0.0 mm 0.00 in0.0 mm 0.00 in0.0 mm
04:11 AM 41.0°F5.0°C 27.0°F-2.8°C 57% 3.3 mph ENE5.3 kmh ENE 9.0 mph14.5 kmh 30.34 in1027.4 mb 0.00 in0.0 mm 0.00 in0.0 mm 0.00 in0.0 mm
04:16 AM 41.1°F5.1°C 27.1°F-2.7°C 57% 2.7 mph ENE4.3 kmh ENE 9.0 mph14.5 kmh 30.34 in1027.4 mb 0.00 in0.0 mm 0.00 in0.0 mm 0.00 in0.0 mm
04:21 AM 41.1°F5.1°C 27.1°F-2.7°C 57% 2.2 mph E3.5 kmh E 8.0 mph12.9 kmh 30.34 in1027.4 mb 0.00 in0.0 mm 0.00 in0.0 mm 0.00 in0.0 mm
04:26 AM 41.1°F5.1°C 27.0°F-2.8°C 57% 3.7 mph E6.0 kmh E 8.0 mph12.9 kmh 30.34 in1027.4 mb 0.00 in0.0 mm 0.00 in0.0 mm 0.00 in0.0 mm
04:31 AM 41.1°F5.1°C 27.5°F-2.5°C 58% 3.8 mph NE6.1 kmh NE 8.0 mph12.9 kmh 30.33 in1027.1 mb 0.00 in0.0 mm 0.00 in0.0 mm 0.00 in0.0 mm
04:36 AM 41.1°F5.1°C 27.5°F-2.5°C 58% 3.8 mph ENE6.1 kmh ENE 8.0 mph12.9 kmh 30.33 in1027.1 mb 0.00 in0.0 mm 0.00 in0.0 mm 0.00 in0.0 mm
04:41 AM 41.1°F5.1°C 27.5°F-2.5°C 58% 3.7 mph ENE6.0 kmh ENE 8.0 mph12.9 kmh 30.33 in1027.1 mb 0.00 in0.0 mm 0.00 in0.0 mm 0.00 in0.0 mm
04:46 AM 41.1°F5.1°C 27.5°F-2.5°C 58% 4.5 mph ENE7.2 kmh ENE 8.0 mph12.9 kmh 30.33 in1027.1 mb 0.00 in0.0 mm 0.00 in0.0 mm 0.00 in0.0 mm
04:51 AM 41.2°F5.1°C 27.6°F-2.4°C 58% 2.2 mph NE3.5 kmh NE 7.0 mph11.3 kmh 30.33 in1027.1 mb 0.00 in0.0 mm 0.00 in0.0 mm 0.00 in0.0 mm
04:56 AM 41.2°F5.1°C 27.5°F-2.5°C 58% 4.3 mph ENE6.9 kmh ENE 8.0 mph12.9 kmh 30.33 in1027.1 mb 0.00 in0.0 mm 0.00 in0.0 mm 0.00 in0.0 mm
05:01 AM 41.2°F5.1°C 27.6°F-2.4°C 58% 4.9 mph NE7.9 kmh NE 9.0 mph14.5 kmh 30.33 in1027.1 mb 0.00 in0.0 mm 0.00 in0.0 mm 0.00 in0.0 mm
05:06 AM 41.1°F5.1°C 27.1°F-2.7°C 57% 6.1 mph ENE9.8 kmh ENE 10.0 mph16.1 kmh 30.33 in1027.1 mb 0.00 in0.0 mm 0.00 in0.0 mm 0.00 in0.0 mm
05:11 AM 41.1°F5.1°C 27.4°F-2.6°C 58% 2.5 mph E4.0 kmh E 10.0 mph16.1 kmh 30.33 in1027.1 mb 0.00 in0.0 mm 0.00 in0.0 mm 0.00 in0.0 mm
05:16 AM 41.1°F5.1°C 27.5°F-2.5°C 58% 3.1 mph ENE5.0 kmh ENE 10.0 mph16.1 kmh 30.33 in1027.1 mb 0.00 in0.0 mm 0.00 in0.0 mm 0.00 in0.0 mm
05:21 AM 41.1°F5.1°C 27.5°F-2.5°C 58% 3.9 mph E6.3 kmh E 10.0 mph16.1 kmh 30.33 in1027.1 mb 0.00 in0.0 mm 0.00 in0.0 mm 0.00 in0.0 mm
05:26 AM 41.0°F5.0°C 27.0°F-2.8°C 57% 5.8 mph E9.3 kmh E 10.0 mph16.1 kmh 30.33 in1027.1 mb 0.00 in0.0 mm 0.00 in0.0 mm 0.00 in0.0 mm
05:31 AM 41.0°F5.0°C 27.4°F-2.6°C 58% 4.9 mph E7.9 kmh E 10.0 mph16.1 kmh 30.33 in1027.1 mb 0.00 in0.0 mm 0.00 in0.0 mm 0.00 in0.0 mm
05:36 AM 41.0°F5.0°C 27.3°F-2.6°C 58% 5.7 mph ENE9.2 kmh ENE 10.0 mph16.1 kmh 30.33 in1027.1 mb 0.00 in0.0 mm 0.00 in0.0 mm 0.00 in0.0 mm
05:41 AM 40.9°F4.9°C 27.3°F-2.6°C 58% 6.9 mph E11.1 kmh E 10.0 mph16.1 kmh 30.33 in1027.1 mb 0.00 in0.0 mm 0.00 in0.0 mm 0.00 in0.0 mm
05:46 AM 40.9°F4.9°C 27.3°F-2.6°C 58% 3.2 mph ENE5.1 kmh ENE 10.0 mph16.1 kmh 30.33 in1027.1 mb 0.00 in0.0 mm 0.00 in0.0 mm 0.00 in0.0 mm
05:51 AM 40.9°F4.9°C 27.3°F-2.6°C 58% 5.7 mph ENE9.2 kmh ENE 10.0 mph16.1 kmh 30.33 in1027.1 mb 0.00 in0.0 mm 0.00 in0.0 mm 0.00 in0.0 mm
05:56 AM 40.8°F4.9°C 27.2°F-2.7°C 58% 4.2 mph ENE6.8 kmh ENE 10.0 mph16.1 kmh 30.33 in1027.1 mb 0.00 in0.0 mm 0.00 in0.0 mm 0.00 in0.0 mm
06:01 AM 40.8°F4.9°C 27.6°F-2.4°C 59% 4.4 mph ENE7.1 kmh ENE 10.0 mph16.1 kmh 30.33 in1027.1 mb 0.00 in0.0 mm 0.00 in0.0 mm 0.00 in0.0 mm
06:06 AM 40.8°F4.9°C 27.6°F-2.4°C 59% 1.6 mph ENE2.6 kmh ENE 10.0 mph16.1 kmh 30.33 in1027.1 mb 0.00 in0.0 mm 0.00 in0.0 mm 0.00 in0.0 mm
06:11 AM 40.8°F4.9°C 27.6°F-2.4°C 59% 3.6 mph E5.8 kmh E 9.0 mph14.5 kmh 30.33 in1027.1 mb 0.00 in0.0 mm 0.00 in0.0 mm 0.00 in0.0 mm
06:16 AM 40.7°F4.8°C 27.5°F-2.5°C 59% 4.6 mph E7.4 kmh E 11.0 mph17.7 kmh 30.33 in1027.1 mb 0.00 in0.0 mm 0.00 in0.0 mm 0.00 in0.0 mm
06:21 AM 40.7°F4.8°C 27.5°F-2.5°C 59% 4.2 mph E6.8 kmh E 11.0 mph17.7 kmh 30.33 in1027.1 mb 0.00 in0.0 mm 0.00 in0.0 mm 0.00 in0.0 mm
06:26 AM 40.6°F4.8°C 27.9°F-2.3°C 60% 3.8 mph ENE6.1 kmh ENE 11.0 mph17.7 kmh 30.33 in1027.1 mb 0.00 in0.0 mm 0.00 in0.0 mm 0.00 in0.0 mm
06:31 AM 40.6°F4.8°C 27.9°F-2.3°C 60% 4.8 mph ENE7.7 kmh ENE 10.0 mph16.1 kmh 30.33 in1027.1 mb 0.00 in0.0 mm 0.00 in0.0 mm 0.00 in0.0 mm
06:36 AM 40.6°F4.8°C 27.9°F-2.3°C 60% 3.1 mph E5.0 kmh E 10.0 mph16.1 kmh 30.32 in1026.8 mb 0.00 in0.0 mm 0.00 in0.0 mm 0.00 in0.0 mm
06:41 AM 40.5°F4.7°C 27.8°F-2.3°C 60% 5.7 mph ENE9.2 kmh ENE 10.0 mph16.1 kmh 30.32 in1026.8 mb 0.00 in0.0 mm 0.00 in0.0 mm 0.00 in0.0 mm
06:46 AM 40.5°F4.7°C 27.8°F-2.3°C 60% 3.8 mph ENE6.1 kmh ENE 10.0 mph16.1 kmh 30.33 in1027.1 mb 0.00 in0.0 mm 0.00 in0.0 mm 0.00 in0.0 mm
06:51 AM 40.5°F4.7°C 27.7°F-2.4°C 60% 2.4 mph ENE3.9 kmh ENE 10.0 mph16.1 kmh 30.33 in1027.1 mb 0.00 in0.0 mm 0.00 in0.0 mm 0.00 in0.0 mm
06:56 AM 40.5°F4.7°C 27.8°F-2.3°C 60% 3.6 mph ENE5.8 kmh ENE 10.0 mph16.1 kmh 30.33 in1027.1 mb 0.00 in0.0 mm 0.00 in0.0 mm 0.00 in0.0 mm
07:01 AM 40.5°F4.7°C 27.8°F-2.3°C 60% 4.6 mph NE7.4 kmh NE 8.0 mph12.9 kmh 30.33 in1027.1 mb 0.00 in0.0 mm 0.00 in0.0 mm 0.00 in0.0 mm
07:06 AM 40.5°F4.7°C 27.3°F-2.6°C 59% 3.8 mph ENE6.1 kmh ENE 8.0 mph12.9 kmh 30.33 in1027.1 mb 0.00 in0.0 mm 0.00 in0.0 mm 0.00 in0.0 mm
07:11 AM 40.5°F4.7°C 27.3°F-2.6°C 59% 3.8 mph ENE6.1 kmh ENE 8.0 mph12.9 kmh 30.33 in1027.1 mb 0.00 in0.0 mm 0.00 in0.0 mm 0.00 in0.0 mm
07:16 AM 40.6°F4.8°C 27.4°F-2.6°C 59% 5.6 mph E9.0 kmh E 11.0 mph17.7 kmh 30.34 in1027.4 mb 0.00 in0.0 mm 0.00 in0.0 mm 0.00 in0.0 mm
07:21 AM 40.6°F4.8°C 27.0°F-2.8°C 58% 5.7 mph E9.2 kmh E 11.0 mph17.7 kmh 30.33 in1027.1 mb 0.00 in0.0 mm 0.00 in0.0 mm 0.00 in0.0 mm
07:26 AM 40.6°F4.8°C 27.0°F-2.8°C 58% 5.2 mph ENE8.4 kmh ENE 11.0 mph17.7 kmh 30.34 in1027.4 mb 0.00 in0.0 mm 0.00 in0.0 mm 0.00 in0.0 mm
07:31 AM 40.7°F4.8°C 27.1°F-2.7°C 58% 4.1 mph ENE6.6 kmh ENE 11.0 mph17.7 kmh 30.34 in1027.4 mb 0.00 in0.0 mm 0.00 in0.0 mm 0.00 in0.0 mm
07:36 AM 40.7°F4.8°C 27.5°F-2.5°C 59% 4.7 mph ENE7.6 kmh ENE 11.0 mph17.7 kmh 30.34 in1027.4 mb 0.00 in0.0 mm 0.00 in0.0 mm 0.00 in0.0 mm
07:41 AM 40.7°F4.8°C 27.5°F-2.5°C 59% 5.5 mph ENE8.9 kmh ENE 11.0 mph17.7 kmh 30.34 in1027.4 mb 0.00 in0.0 mm 0.00 in0.0 mm 0.00 in0.0 mm
07:46 AM 40.8°F4.9°C 28.0°F-2.2°C 60% 4.0 mph ENE6.4 kmh ENE 11.0 mph17.7 kmh 30.34 in1027.4 mb 0.00 in0.0 mm 0.00 in0.0 mm 0.00 in0.0 mm
07:51 AM 40.8°F4.9°C 28.0°F-2.2°C 60% 3.1 mph NE5.0 kmh NE 11.0 mph17.7 kmh 30.34 in1027.4 mb 0.00 in0.0 mm 0.00 in0.0 mm 0.00 in0.0 mm
07:56 AM 40.8°F4.9°C 28.0°F-2.2°C 60% 4.4 mph NE7.1 kmh NE 11.0 mph17.7 kmh 30.35 in1027.8 mb 0.00 in0.0 mm 0.00 in0.0 mm 0.00 in0.0 mm
08:01 AM 40.8°F4.9°C 28.0°F-2.2°C 60% 2.7 mph NE4.3 kmh NE 10.0 mph16.1 kmh 30.34 in1027.4 mb 0.00 in0.0 mm 0.00 in0.0 mm 0.00 in0.0 mm
08:06 AM 40.8°F4.9°C 28.0°F-2.2°C 60% 5.5 mph ENE8.9 kmh ENE 10.0 mph16.1 kmh 30.34 in1027.4 mb 0.00 in0.0 mm 0.00 in0.0 mm 0.00 in0.0 mm
08:11 AM 40.7°F4.8°C 27.9°F-2.3°C 60% 3.8 mph ENE6.1 kmh ENE 9.0 mph14.5 kmh 30.34 in1027.4 mb 0.00 in0.0 mm 0.00 in0.0 mm 0.00 in0.0 mm
08:16 AM 40.7°F4.8°C 28.0°F-2.2°C 60% 5.7 mph NE9.2 kmh NE 9.0 mph14.5 kmh 30.34 in1027.4 mb 0.00 in0.0 mm 0.00 in0.0 mm 0.00 in0.0 mm
08:21 AM 40.7°F4.8°C 28.4°F-2.0°C 61% 4.3 mph ENE6.9 kmh ENE 9.0 mph14.5 kmh 30.33 in1027.1 mb 0.00 in0.0 mm 0.00 in0.0 mm 0.00 in0.0 mm
08:26 AM 40.6°F4.8°C 28.2°F-2.1°C 61% 3.8 mph ENE6.1 kmh ENE 10.0 mph16.1 kmh 30.33 in1027.1 mb 0.00 in0.0 mm 0.00 in0.0 mm 0.00 in0.0 mm
08:31 AM 40.6°F4.8°C 28.7°F-1.8°C 62% 4.5 mph NE7.2 kmh NE 10.0 mph16.1 kmh 30.34 in1027.4 mb 0.00 in0.0 mm 0.00 in0.0 mm 0.00 in0.0 mm
08:36 AM 40.6°F4.8°C 28.7°F-1.8°C 62% 5.7 mph ENE9.2 kmh ENE 10.0 mph16.1 kmh 30.33 in1027.1 mb 0.00 in0.0 mm 0.00 in0.0 mm 0.00 in0.0 mm
08:41 AM 40.6°F4.8°C 28.7°F-1.8°C 62% 5.3 mph ENE8.5 kmh ENE 11.0 mph17.7 kmh 30.34 in1027.4 mb 0.00 in0.0 mm 0.00 in0.0 mm 0.00 in0.0 mm
08:46 AM 40.6°F4.8°C 29.0°F-1.7°C 63% 4.4 mph ENE7.1 kmh ENE 11.0 mph17.7 kmh 30.34 in1027.4 mb 0.00 in0.0 mm 0.00 in0.0 mm 0.00 in0.0 mm
08:51 AM 40.6°F4.8°C 29.0°F-1.7°C 63% 4.4 mph ENE7.1 kmh ENE 11.0 mph17.7 kmh 30.34 in1027.4 mb 0.00 in0.0 mm 0.00 in0.0 mm 0.00 in0.0 mm
08:56 AM 40.6°F4.8°C 29.1°F-1.6°C 63% 4.1 mph ENE6.6 kmh ENE 11.0 mph17.7 kmh 30.34 in1027.4 mb 0.00 in0.0 mm 0.00 in0.0 mm 0.00 in0.0 mm
09:00 AM 40.6°F4.8°C 29.1°F-1.6°C 63% 4.7 mph NE7.6 kmh NE 9.0 mph14.5 kmh 30.34 in1027.4 mb 0.00 in0.0 mm 0.00 in0.0 mm 0.00 in0.0 mm
09:05 AM 40.7°F4.8°C 29.2°F-1.6°C 63% 6.4 mph ENE10.3 kmh ENE 12.0 mph19.3 kmh 30.33 in1027.1 mb 0.00 in0.0 mm 0.00 in0.0 mm 0.00 in0.0 mm
09:10 AM 40.8°F4.9°C 29.6°F-1.3°C 64% 3.9 mph ENE6.3 kmh ENE 12.0 mph19.3 kmh 30.34 in1027.4 mb 0.00 in0.0 mm 0.00 in0.0 mm 0.00 in0.0 mm
09:15 AM 40.8°F4.9°C 29.6°F-1.3°C 64% 8.0 mph ENE12.9 kmh ENE 12.0 mph19.3 kmh 30.34 in1027.4 mb 0.00 in0.0 mm 0.00 in0.0 mm 0.00 in0.0 mm
09:20 AM 40.9°F4.9°C 29.7°F-1.3°C 64% 4.7 mph NE7.6 kmh NE 11.0 mph17.7 kmh 30.34 in1027.4 mb 0.00 in0.0 mm 0.00 in0.0 mm 0.00 in0.0 mm
09:25 AM 40.9°F4.9°C 29.7°F-1.3°C 64% 4.1 mph NE6.6 kmh NE 11.0 mph17.7 kmh 30.33 in1027.1 mb 0.00 in0.0 mm 0.00 in0.0 mm 0.00 in0.0 mm
09:30 AM 40.9°F4.9°C 29.7°F-1.3°C 64% 5.1 mph ENE8.2 kmh ENE 11.0 mph17.7 kmh 30.33 in1027.1 mb 0.00 in0.0 mm 0.00 in0.0 mm 0.00 in0.0 mm
09:35 AM 41.0°F5.0°C 29.8°F-1.2°C 64% 3.7 mph ENE6.0 kmh ENE 10.0 mph16.1 kmh 30.33 in1027.1 mb 0.00 in0.0 mm 0.00 in0.0 mm 0.00 in0.0 mm
09:40 AM 41.0°F5.0°C 29.8°F-1.2°C 64% 5.0 mph ENE8.0 kmh ENE 13.0 mph20.9 kmh 30.34 in1027.4 mb 0.00 in0.0 mm 0.00 in0.0 mm 0.00 in0.0 mm
09:45 AM 41.1°F5.1°C 30.3°F-0.9°C 65% 4.8 mph NE7.7 kmh NE 13.0 mph20.9 kmh 30.34 in1027.4 mb 0.00 in0.0 mm 0.00 in0.0 mm 0.00 in0.0 mm
09:50 AM 41.2°F5.1°C 30.4°F-0.9°C 65% 4.5 mph ENE7.2 kmh ENE 13.0 mph20.9 kmh 30.34 in1027.4 mb 0.00 in0.0 mm 0.00 in0.0 mm 0.00 in0.0 mm
09:55 AM 41.3°F5.2°C 30.5°F-0.8°C 65% 5.7 mph NE9.2 kmh NE 13.0 mph20.9 kmh 30.34 in1027.4 mb 0.00 in0.0 mm 0.00 in0.0 mm 0.00 in0.0 mm
10:00 AM 41.3°F5.2°C 30.5°F-0.8°C 65% 4.6 mph NE7.4 kmh NE 11.0 mph17.7 kmh 30.34 in1027.4 mb 0.00 in0.0 mm 0.00 in0.0 mm 0.00 in0.0 mm
10:05 AM 41.4°F5.2°C 30.9°F-0.6°C 66% 2.6 mph ENE4.2 kmh ENE 11.0 mph17.7 kmh 30.34 in1027.4 mb 0.00 in0.0 mm 0.00 in0.0 mm 0.00 in0.0 mm
10:10 AM 41.5°F5.3°C 31.1°F-0.5°C 66% 4.9 mph ENE7.9 kmh ENE 11.0 mph17.7 kmh 30.34 in1027.4 mb 0.00 in0.0 mm 0.00 in0.0 mm 0.00 in0.0 mm
10:15 AM 41.5°F5.3°C 31.1°F-0.5°C 66% 5.9 mph NE9.5 kmh NE 11.0 mph17.7 kmh 30.34 in1027.4 mb 0.00 in0.0 mm 0.00 in0.0 mm 0.00 in0.0 mm
10:20 AM 41.6°F5.3°C 31.2°F-0.4°C 66% 4.9 mph ENE7.9 kmh ENE 11.0 mph17.7 kmh 30.34 in1027.4 mb 0.00 in0.0 mm 0.00 in0.0 mm 0.00 in0.0 mm
10:25 AM 41.6°F5.3°C 31.2°F-0.4°C 66% 5.6 mph ENE9.0 kmh ENE 11.0 mph17.7 kmh 30.34 in1027.4 mb 0.00 in0.0 mm 0.00 in0.0 mm 0.00 in0.0 mm
10:30 AM 41.7°F5.4°C 31.6°F-0.2°C 67% 1.8 mph ENE2.9 kmh ENE 11.0 mph17.7 kmh 30.34 in1027.4 mb 0.00 in0.0 mm 0.00 in0.0 mm 0.00 in0.0 mm
10:35 AM 41.9°F5.5°C 31.8°F-0.1°C 67% 4.1 mph ENE6.6 kmh ENE 11.0 mph17.7 kmh 30.34 in1027.4 mb 0.00 in0.0 mm 0.00 in0.0 mm 0.00 in0.0 mm
10:40 AM 42.0°F5.6°C 31.9°F-0.1°C 67% 3.2 mph ENE5.1 kmh ENE 10.0 mph16.1 kmh 30.35 in1027.8 mb 0.00 in0.0 mm 0.00 in0.0 mm 0.00 in0.0 mm
10:45 AM 42.0°F5.6°C 31.9°F-0.1°C 67% 4.3 mph ENE6.9 kmh ENE 10.0 mph16.1 kmh 30.36 in1028.1 mb 0.00 in0.0 mm 0.00 in0.0 mm 0.00 in0.0 mm
10:50 AM 42.1°F5.6°C 31.9°F-0.1°C 67% 5.2 mph ENE8.4 kmh ENE 10.0 mph16.1 kmh 30.35 in1027.8 mb 0.00 in0.0 mm 0.00 in0.0 mm 0.00 in0.0 mm
10:55 AM 42.4°F5.8°C 32.7°F0.4°C 68% 3.6 mph E5.8 kmh E 10.0 mph16.1 kmh 30.35 in1027.8 mb 0.00 in0.0 mm 0.00 in0.0 mm 0.00 in0.0 mm
11:00 AM 42.6°F5.9°C 32.9°F0.5°C 68% 7.5 mph E12.1 kmh E 13.0 mph20.9 kmh 30.36 in1028.1 mb 0.00 in0.0 mm 0.00 in0.0 mm 0.00 in0.0 mm
11:05 AM 42.8°F6.0°C 32.7°F0.4°C 67% 4.7 mph ENE7.6 kmh ENE 13.0 mph20.9 kmh 30.36 in1028.1 mb 0.00 in0.0 mm 0.00 in0.0 mm 0.00 in0.0 mm
11:10 AM 43.2°F6.2°C 33.1°F0.6°C 67% 9.2 mph ENE14.8 kmh ENE 14.0 mph22.5 kmh 30.36 in1028.1 mb 0.00 in0.0 mm 0.00 in0.0 mm 0.00 in0.0 mm
11:15 AM 43.3°F6.3°C 33.4°F0.8°C 68% 7.4 mph E11.9 kmh E 15.0 mph24.1 kmh 30.36 in1028.1 mb 0.00 in0.0 mm 0.00 in0.0 mm 0.00 in0.0 mm
11:20 AM 43.4°F6.3°C 33.6°F0.9°C 68% 5.5 mph ENE8.9 kmh ENE 15.0 mph24.1 kmh 30.36 in1028.1 mb 0.00 in0.0 mm 0.00 in0.0 mm 0.00 in0.0 mm
11:25 AM 43.4°F6.3°C 33.6°F0.9°C 68% 5.9 mph ENE9.5 kmh ENE 16.0 mph25.7 kmh 30.36 in1028.1 mb 0.00 in0.0 mm 0.00 in0.0 mm 0.00 in0.0 mm
11:30 AM 43.6°F6.4°C 33.8°F1.0°C 68% 7.4 mph ENE11.9 kmh ENE 16.0 mph25.7 kmh 30.36 in1028.1 mb 0.00 in0.0 mm 0.00 in0.0 mm 0.00 in0.0 mm
11:35 AM 43.4°F6.3°C 33.6°F0.9°C 68% 6.1 mph ENE9.8 kmh ENE 16.0 mph25.7 kmh 30.36 in1028.1 mb 0.00 in0.0 mm 0.00 in0.0 mm 0.00 in0.0 mm
11:40 AM 43.6°F6.4°C 34.2°F1.2°C 69% 3.8 mph ENE6.1 kmh ENE 16.0 mph25.7 kmh 30.36 in1028.1 mb 0.00 in0.0 mm 0.00 in0.0 mm 0.00 in0.0 mm
11:45 AM 43.7°F6.5°C 33.9°F1.1°C 68% 10.2 mph ENE16.4 kmh ENE 17.0 mph27.4 kmh 30.36 in1028.1 mb 0.00 in0.0 mm 0.00 in0.0 mm 0.00 in0.0 mm
11:50 AM 43.6°F6.4°C 34.2°F1.2°C 69% 5.7 mph ENE9.2 kmh ENE 17.0 mph27.4 kmh 30.36 in1028.1 mb 0.00 in0.0 mm 0.00 in0.0 mm 0.00 in0.0 mm
11:55 AM 43.8°F6.6°C 34.4°F1.3°C 69% 5.9 mph ENE9.5 kmh ENE 17.0 mph27.4 kmh 30.36 in1028.1 mb 0.00 in0.0 mm 0.00 in0.0 mm 0.00 in0.0 mm
12:00 PM 44.1°F6.7°C 34.7°F1.5°C 69% 3.3 mph ENE5.3 kmh ENE 17.0 mph27.4 kmh 30.35 in1027.8 mb 0.00 in0.0 mm 0.00 in0.0 mm 0.00 in0.0 mm
12:05 PM 44.3°F6.8°C 34.8°F1.6°C 69% 6.2 mph E10.0 kmh E 11.0 mph17.7 kmh 30.35 in1027.8 mb 0.00 in0.0 mm 0.00 in0.0 mm 0.00 in0.0 mm
12:10 PM 44.5°F6.9°C 35.1°F1.7°C 69% 4.3 mph ENE6.9 kmh ENE 11.0 mph17.7 kmh 30.35 in1027.8 mb 0.00 in0.0 mm 0.00 in0.0 mm 0.00 in0.0 mm
12:15 PM 44.5°F6.9°C 34.7°F1.5°C 68% 5.7 mph ENE9.2 kmh ENE 9.0 mph14.5 kmh 30.35 in1027.8 mb 0.00 in0.0 mm 0.00 in0.0 mm 0.00 in0.0 mm
12:20 PM 44.5°F6.9°C 34.7°F1.5°C 68% 5.1 mph NE8.2 kmh NE 11.0 mph17.7 kmh 30.35 in1027.8 mb 0.00 in0.0 mm 0.00 in0.0 mm 0.00 in0.0 mm
12:25 PM 44.4°F6.9°C 34.6°F1.4°C 68% 3.6 mph ENE5.8 kmh ENE 11.0 mph17.7 kmh 30.35 in1027.8 mb 0.00 in0.0 mm 0.00 in0.0 mm 0.00 in0.0 mm
12:30 PM 44.4°F6.9°C 34.9°F1.6°C 69% 4.7 mph ENE7.6 kmh ENE 11.0 mph17.7 kmh 30.35 in1027.8 mb 0.00 in0.0 mm 0.00 in0.0 mm 0.00 in0.0 mm
12:35 PM 44.5°F6.9°C 35.4°F1.9°C 70% 3.3 mph E5.3 kmh E 11.0 mph17.7 kmh 30.34 in1027.4 mb 0.00 in0.0 mm 0.00 in0.0 mm 0.00 in0.0 mm
12:40 PM 44.6°F7.0°C 35.1°F1.7°C 69% 4.2 mph ENE6.8 kmh ENE 10.0 mph16.1 kmh 30.34 in1027.4 mb 0.00 in0.0 mm 0.00 in0.0 mm 0.00 in0.0 mm
12:45 PM 44.8°F7.1°C 35.7°F2.1°C 70% 3.2 mph NE5.1 kmh NE 10.0 mph16.1 kmh 30.34 in1027.4 mb 0.00 in0.0 mm 0.00 in0.0 mm 0.00 in0.0 mm
12:50 PM 45.0°F7.2°C 35.5°F1.9°C 69% 4.3 mph E6.9 kmh E 8.0 mph12.9 kmh 30.33 in1027.1 mb 0.00 in0.0 mm 0.00 in0.0 mm 0.00 in0.0 mm
12:55 PM 45.2°F7.3°C 36.1°F2.3°C 70% 4.1 mph ENE6.6 kmh ENE 11.0 mph17.7 kmh 30.33 in1027.1 mb 0.00 in0.0 mm 0.00 in0.0 mm 0.00 in0.0 mm
01:00 PM 45.2°F7.3°C 35.7°F2.1°C 69% 8.5 mph NE13.7 kmh NE 13.0 mph20.9 kmh 30.32 in1026.8 mb 0.00 in0.0 mm 0.00 in0.0 mm 0.00 in0.0 mm
01:05 PM 45.2°F7.3°C 36.1°F2.3°C 70% 3.7 mph ENE6.0 kmh ENE 13.0 mph20.9 kmh 30.32 in1026.8 mb 0.00 in0.0 mm 0.00 in0.0 mm 0.00 in0.0 mm
01:10 PM 45.4°F7.4°C 36.2°F2.3°C 70% 5.1 mph E8.2 kmh E 13.0 mph20.9 kmh 30.33 in1027.1 mb 0.00 in0.0 mm 0.00 in0.0 mm 0.00 in0.0 mm
01:15 PM 45.2°F7.3°C 35.7°F2.1°C 69% 7.5 mph NE12.1 kmh NE 13.0 mph20.9 kmh 30.33 in1027.1 mb 0.00 in0.0 mm 0.00 in0.0 mm 0.00 in0.0 mm
01:20 PM 45.1°F7.3°C 36.0°F2.2°C 70% 5.9 mph NE9.5 kmh NE 12.0 mph19.3 kmh 30.32 in1026.8 mb 0.00 in0.0 mm 0.00 in0.0 mm 0.00 in0.0 mm
01:25 PM 44.9°F7.2°C 35.8°F2.1°C 70% 4.4 mph NE7.1 kmh NE 13.0 mph20.9 kmh 30.32 in1026.8 mb 0.00 in0.0 mm 0.00 in0.0 mm 0.00 in0.0 mm
01:30 PM 45.0°F7.2°C 35.9°F2.2°C 70% 3.8 mph ENE6.1 kmh ENE 13.0 mph20.9 kmh 30.31 in1026.4 mb 0.00 in0.0 mm 0.00 in0.0 mm 0.00 in0.0 mm
01:35 PM 45.1°F7.3°C 35.9°F2.2°C 70% 2.5 mph NE4.0 kmh NE 13.0 mph20.9 kmh 30.31 in1026.4 mb 0.00 in0.0 mm 0.00 in0.0 mm 0.00 in0.0 mm
01:41 PM 45.0°F7.2°C 35.5°F1.9°C 69% 4.5 mph NE7.2 kmh NE 13.0 mph20.9 kmh 30.31 in1026.4 mb 0.00 in0.0 mm 0.00 in0.0 mm 0.00 in0.0 mm
01:46 PM 44.9°F7.2°C 35.8°F2.1°C 70% 4.3 mph ENE6.9 kmh ENE 11.0 mph17.7 kmh 30.31 in1026.4 mb 0.00 in0.0 mm 0.00 in0.0 mm 0.00 in0.0 mm
01:51 PM 44.9°F7.2°C 35.8°F2.1°C 70% 4.8 mph NE7.7 kmh NE 11.0 mph17.7 kmh 30.30 in1026.1 mb 0.00 in0.0 mm 0.00 in0.0 mm 0.00 in0.0 mm
01:56 PM 44.8°F7.1°C 35.7°F2.1°C 70% 4.3 mph ENE6.9 kmh ENE 11.0 mph17.7 kmh 30.30 in1026.1 mb 0.00 in0.0 mm 0.00 in0.0 mm 0.00 in0.0 mm
01:59 PM 44.9°F7.2°C 35.8°F2.1°C 70% 5.8 mph ENE9.3 kmh ENE 11.0 mph17.7 kmh 30.29 in1025.7 mb 0.00 in0.0 mm 0.00 in0.0 mm 0.00 in0.0 mm
02:05 PM 44.7°F7.1°C 35.6°F2.0°C 70% 6.8 mph NE10.9 kmh NE 11.0 mph17.7 kmh 30.29 in1025.7 mb 0.00 in0.0 mm 0.00 in0.0 mm 0.00 in0.0 mm
02:10 PM 44.5°F6.9°C 35.8°F2.1°C 71% 7.0 mph NE11.3 kmh NE 14.0 mph22.5 kmh 30.28 in1025.4 mb 0.00 in0.0 mm 0.00 in0.0 mm 0.00 in0.0 mm
02:15 PM 44.5°F6.9°C 35.8°F2.1°C 71% 6.0 mph NE9.7 kmh NE 14.0 mph22.5 kmh 30.28 in1025.4 mb 0.00 in0.0 mm 0.00 in0.0 mm 0.00 in0.0 mm
02:20 PM 44.4°F6.9°C 35.2°F1.8°C 70% 7.6 mph NE12.2 kmh NE 14.0 mph22.5 kmh 30.28 in1025.4 mb 0.00 in0.0 mm 0.00 in0.0 mm 0.00 in0.0 mm
02:25 PM 44.5°F6.9°C 35.4°F1.9°C 70% 6.4 mph NE10.3 kmh NE 14.0 mph22.5 kmh 30.28 in1025.4 mb 0.00 in0.0 mm 0.00 in0.0 mm 0.00 in0.0 mm
02:30 PM 44.7°F7.1°C 36.0°F2.2°C 71% 5.0 mph NE8.0 kmh NE 13.0 mph20.9 kmh 30.28 in1025.4 mb 0.00 in0.0 mm 0.00 in0.0 mm 0.00 in0.0 mm
02:35 PM 44.7°F7.1°C 36.0°F2.2°C 71% 3.7 mph ENE6.0 kmh ENE 12.0 mph19.3 kmh 30.28 in1025.4 mb 0.00 in0.0 mm 0.00 in0.0 mm 0.00 in0.0 mm
02:40 PM 44.8°F7.1°C 35.7°F2.1°C 70% 3.8 mph ENE6.1 kmh ENE 11.0 mph17.7 kmh 30.28 in1025.4 mb 0.00 in0.0 mm 0.00 in0.0 mm 0.00 in0.0 mm
02:45 PM 44.9°F7.2°C 36.1°F2.3°C 71% 2.9 mph NE4.7 kmh NE 10.0 mph16.1 kmh 30.28 in1025.4 mb 0.00 in0.0 mm 0.00 in0.0 mm 0.00 in0.0 mm
02:50 PM 45.1°F7.3°C 36.3°F2.4°C 71% 5.8 mph ENE9.3 kmh ENE 10.0 mph16.1 kmh 30.28 in1025.4 mb 0.00 in0.0 mm 0.00 in0.0 mm 0.00 in0.0 mm
02:55 PM 45.2°F7.3°C 36.4°F2.4°C 71% 4.2 mph NE6.8 kmh NE 10.0 mph16.1 kmh 30.28 in1025.4 mb 0.00 in0.0 mm 0.00 in0.0 mm 0.00 in0.0 mm
03:00 PM 45.1°F7.3°C 36.0°F2.2°C 70% 8.2 mph NE13.2 kmh NE 13.0 mph20.9 kmh 30.27 in1025.1 mb 0.00 in0.0 mm 0.00 in0.0 mm 0.00 in0.0 mm
03:05 PM 45.1°F7.3°C 36.3°F2.4°C 71% 6.1 mph NE9.8 kmh NE 13.0 mph20.9 kmh 30.27 in1025.1 mb 0.00 in0.0 mm 0.00 in0.0 mm 0.00 in0.0 mm
03:10 PM 45.4°F7.4°C 36.5°F2.5°C 71% 2.4 mph ENE3.9 kmh ENE 13.0 mph20.9 kmh 30.27 in1025.1 mb 0.00 in0.0 mm 0.00 in0.0 mm 0.00 in0.0 mm
03:15 PM 45.1°F7.3°C 36.0°F2.2°C 70% 6.3 mph NE10.1 kmh NE 13.0 mph20.9 kmh 30.27 in1025.1 mb 0.00 in0.0 mm 0.00 in0.0 mm 0.00 in0.0 mm
03:20 PM 44.9°F7.2°C 35.7°F2.1°C 70% 7.4 mph NE11.9 kmh NE 13.0 mph20.9 kmh 30.27 in1025.1 mb 0.00 in0.0 mm 0.00 in0.0 mm 0.00 in0.0 mm
03:25 PM 44.9°F7.2°C 36.2°F2.3°C 71% 3.9 mph NE6.3 kmh NE 13.0 mph20.9 kmh 30.27 in1025.1 mb 0.00 in0.0 mm 0.00 in0.0 mm 0.00 in0.0 mm
03:30 PM 44.8°F7.1°C 36.1°F2.3°C 71% 4.5 mph NE7.2 kmh NE 13.0 mph20.9 kmh 30.27 in1025.1 mb 0.00 in0.0 mm 0.00 in0.0 mm 0.00 in0.0 mm
03:35 PM 44.8°F7.1°C 36.0°F2.2°C 71% 4.7 mph NE7.6 kmh NE 11.0 mph17.7 kmh 30.26 in1024.7 mb 0.00 in0.0 mm 0.00 in0.0 mm 0.00 in0.0 mm
03:40 PM 45.0°F7.2°C 35.9°F2.2°C 70% 4.5 mph NE7.2 kmh NE 10.0 mph16.1 kmh 30.26 in1024.7 mb 0.00 in0.0 mm 0.00 in0.0 mm 0.00 in0.0 mm
03:45 PM 45.1°F7.3°C 36.0°F2.2°C 70% 7.6 mph ENE12.2 kmh ENE 10.0 mph16.1 kmh 30.26 in1024.7 mb 0.00 in0.0 mm 0.00 in0.0 mm 0.00 in0.0 mm
03:50 PM 44.9°F7.2°C 35.7°F2.1°C 70% 2.7 mph NE4.3 kmh NE 11.0 mph17.7 kmh 30.26 in1024.7 mb 0.00 in0.0 mm 0.00 in0.0 mm 0.00 in0.0 mm
03:55 PM 45.1°F7.3°C 36.0°F2.2°C 70% 4.8 mph NE7.7 kmh NE 11.0 mph17.7 kmh 30.26 in1024.7 mb 0.00 in0.0 mm 0.00 in0.0 mm 0.00 in0.0 mm
04:00 PM 45.1°F7.3°C 36.0°F2.2°C 70% 3.5 mph ENE5.6 kmh ENE 11.0 mph17.7 kmh 30.26 in1024.7 mb 0.00 in0.0 mm 0.00 in0.0 mm 0.00 in0.0 mm
04:05 PM 45.2°F7.3°C 36.4°F2.4°C 71% 6.0 mph E9.7 kmh E 11.0 mph17.7 kmh 30.25 in1024.4 mb 0.00 in0.0 mm 0.00 in0.0 mm 0.00 in0.0 mm
04:10 PM 45.1°F7.3°C 36.3°F2.4°C 71% 5.7 mph E9.2 kmh E 11.0 mph17.7 kmh 30.25 in1024.4 mb 0.00 in0.0 mm 0.00 in0.0 mm 0.00 in0.0 mm
04:15 PM 45.4°F7.4°C 36.2°F2.3°C 70% 5.8 mph ENE9.3 kmh ENE 11.0 mph17.7 kmh 30.24 in1024.0 mb 0.00 in0.0 mm 0.00 in0.0 mm 0.00 in0.0 mm
04:20 PM 45.4°F7.4°C 36.6°F2.6°C 71% 6.6 mph E10.6 kmh E 12.0 mph19.3 kmh 30.24 in1024.0 mb 0.00 in0.0 mm 0.00 in0.0 mm 0.00 in0.0 mm
04:25 PM 45.3°F7.4°C 36.1°F2.3°C 70% 8.1 mph E13.0 kmh E 17.0 mph27.4 kmh 30.24 in1024.0 mb 0.00 in0.0 mm 0.00 in0.0 mm 0.00 in0.0 mm
04:30 PM 45.5°F7.5°C 36.7°F2.6°C 71% 4.7 mph E7.6 kmh E 17.0 mph27.4 kmh 30.23 in1023.7 mb 0.00 in0.0 mm 0.00 in0.0 mm 0.00 in0.0 mm
04:35 PM 45.3°F7.4°C 36.2°F2.3°C 70% 5.6 mph ENE9.0 kmh ENE 17.0 mph27.4 kmh 30.23 in1023.7 mb 0.00 in0.0 mm 0.00 in0.0 mm 0.00 in0.0 mm
04:40 PM 45.2°F7.3°C 36.1°F2.3°C 70% 7.9 mph E12.7 kmh E 17.0 mph27.4 kmh 30.23 in1023.7 mb 0.00 in0.0 mm 0.00 in0.0 mm 0.00 in0.0 mm
04:45 PM 45.1°F7.3°C 36.0°F2.2°C 70% 4.7 mph E7.6 kmh E 12.0 mph19.3 kmh 30.23 in1023.7 mb 0.00 in0.0 mm 0.00 in0.0 mm 0.00 in0.0 mm
04:50 PM 45.3°F7.4°C 36.5°F2.5°C 71% 4.8 mph ENE7.7 kmh ENE 12.0 mph19.3 kmh 30.23 in1023.7 mb 0.00 in0.0 mm 0.00 in0.0 mm 0.00 in0.0 mm
04:55 PM 45.3°F7.4°C 36.5°F2.5°C 71% 6.6 mph E10.6 kmh E 13.0 mph20.9 kmh 30.23 in1023.7 mb 0.00 in0.0 mm 0.00 in0.0 mm 0.00 in0.0 mm
05:00 PM 45.4°F7.4°C 36.5°F2.5°C 71% 3.8 mph E6.1 kmh E 13.0 mph20.9 kmh 30.23 in1023.7 mb 0.00 in0.0 mm 0.00 in0.0 mm 0.00 in0.0 mm
05:05 PM 45.4°F7.4°C 36.6°F2.6°C 71% 4.9 mph E7.9 kmh E 13.0 mph20.9 kmh 30.23 in1023.7 mb 0.00 in0.0 mm 0.00 in0.0 mm 0.00 in0.0 mm
05:10 PM 45.3°F7.4°C 36.5°F2.5°C 71% 5.2 mph ENE8.4 kmh ENE 13.0 mph20.9 kmh 30.23 in1023.7 mb 0.00 in0.0 mm 0.00 in0.0 mm 0.00 in0.0 mm
05:15 PM 45.2°F7.3°C 36.8°F2.7°C 72% 5.1 mph E8.2 kmh E 13.0 mph20.9 kmh 30.23 in1023.7 mb 0.00 in0.0 mm 0.00 in0.0 mm 0.00 in0.0 mm
05:20 PM 45.3°F7.4°C 36.8°F2.7°C 72% 5.3 mph ENE8.5 kmh ENE 13.0 mph20.9 kmh 30.23 in1023.7 mb 0.00 in0.0 mm 0.00 in0.0 mm 0.00 in0.0 mm
05:25 PM 45.1°F7.3°C 37.0°F2.8°C 73% 4.9 mph ENE7.9 kmh ENE 13.0 mph20.9 kmh 30.23 in1023.7 mb 0.00 in0.0 mm 0.00 in0.0 mm 0.00 in0.0 mm
05:30 PM 45.0°F7.2°C 37.3°F2.9°C 74% 3.5 mph ENE5.6 kmh ENE 13.0 mph20.9 kmh 30.23 in1023.7 mb 0.00 in0.0 mm 0.00 in0.0 mm 0.00 in0.0 mm
05:35 PM 44.9°F7.2°C 37.2°F2.9°C 74% 3.6 mph ENE5.8 kmh ENE 10.0 mph16.1 kmh 30.23 in1023.7 mb 0.00 in0.0 mm 0.00 in0.0 mm 0.00 in0.0 mm
05:40 PM 44.8°F7.1°C 37.1°F2.8°C 74% 5.2 mph ENE8.4 kmh ENE 10.0 mph16.1 kmh 30.22 in1023.4 mb 0.00 in0.0 mm 0.00 in0.0 mm 0.00 in0.0 mm
05:45 PM 44.7°F7.1°C 37.3°F2.9°C 75% 4.4 mph ENE7.1 kmh ENE 9.0 mph14.5 kmh 30.22 in1023.4 mb 0.00 in0.0 mm 0.00 in0.0 mm 0.00 in0.0 mm
05:50 PM 44.7°F7.1°C 37.3°F2.9°C 75% 3.8 mph ENE6.1 kmh ENE 10.0 mph16.1 kmh 30.23 in1023.7 mb 0.00 in0.0 mm 0.00 in0.0 mm 0.00 in0.0 mm
05:55 PM 44.7°F7.1°C 37.6°F3.1°C 76% 4.4 mph E7.1 kmh E 10.0 mph16.1 kmh 30.22 in1023.4 mb 0.00 in0.0 mm 0.00 in0.0 mm 0.00 in0.0 mm
06:00 PM 44.8°F7.1°C 37.7°F3.2°C 76% 3.9 mph ENE6.3 kmh ENE 10.0 mph16.1 kmh 30.22 in1023.4 mb 0.00 in0.0 mm 0.00 in0.0 mm 0.00 in0.0 mm
06:05 PM 44.8°F7.1°C 37.8°F3.2°C 76% 5.1 mph ENE8.2 kmh ENE 11.0 mph17.7 kmh 30.21 in1023.0 mb 0.00 in0.0 mm 0.00 in0.0 mm 0.00 in0.0 mm
06:10 PM 44.8°F7.1°C 37.8°F3.2°C 76% 4.4 mph ENE7.1 kmh ENE 13.0 mph20.9 kmh 30.22 in1023.4 mb 0.00 in0.0 mm 0.00 in0.0 mm 0.00 in0.0 mm
06:15 PM 44.9°F7.2°C 37.8°F3.2°C 76% 4.8 mph ENE7.7 kmh ENE 13.0 mph20.9 kmh 30.22 in1023.4 mb 0.00 in0.0 mm 0.00 in0.0 mm 0.00 in0.0 mm
06:20 PM 45.0°F7.2°C 37.6°F3.1°C 75% 5.6 mph ENE9.0 kmh ENE 13.0 mph20.9 kmh 30.22 in1023.4 mb 0.00 in0.0 mm 0.00 in0.0 mm 0.00 in0.0 mm
06:25 PM 45.0°F7.2°C 37.6°F3.1°C 75% 4.5 mph ENE7.2 kmh ENE 12.0 mph19.3 kmh 30.23 in1023.7 mb 0.00 in0.0 mm 0.00 in0.0 mm 0.00 in0.0 mm
06:30 PM 45.0°F7.2°C 37.9°F3.3°C 76% 4.0 mph NE6.4 kmh NE 10.0 mph16.1 kmh 30.23 in1023.7 mb 0.00 in0.0 mm 0.00 in0.0 mm 0.00 in0.0 mm
06:35 PM 44.8°F7.1°C 37.8°F3.2°C 76% 3.7 mph NE6.0 kmh NE 10.0 mph16.1 kmh 30.23 in1023.7 mb 0.00 in0.0 mm 0.00 in0.0 mm 0.00 in0.0 mm
06:40 PM 44.6°F7.0°C 37.8°F3.2°C 77% 3.5 mph NE5.6 kmh NE 9.0 mph14.5 kmh 30.23 in1023.7 mb 0.00 in0.0 mm 0.00 in0.0 mm 0.00 in0.0 mm
06:45 PM 44.5°F6.9°C 37.8°F3.2°C 77% 4.0 mph ENE6.4 kmh ENE 9.0 mph14.5 kmh 30.23 in1023.7 mb 0.00 in0.0 mm 0.00 in0.0 mm 0.00 in0.0 mm
06:50 PM 44.3°F6.8°C 37.9°F3.3°C 78% 3.2 mph ENE5.1 kmh ENE 10.0 mph16.1 kmh 30.23 in1023.7 mb 0.00 in0.0 mm 0.00 in0.0 mm 0.00 in0.0 mm
06:55 PM 44.0°F6.7°C 37.9°F3.3°C 79% 5.1 mph ENE8.2 kmh ENE 10.0 mph16.1 kmh 30.22 in1023.4 mb 0.00 in0.0 mm 0.00 in0.0 mm 0.00 in0.0 mm
06:59 PM 43.8°F6.6°C 38.4°F3.6°C 81% 2.6 mph ENE4.2 kmh ENE 10.0 mph16.1 kmh 30.23 in1023.7 mb 0.00 in0.0 mm 0.00 in0.0 mm 0.00 in0.0 mm
07:04 PM 43.6°F6.4°C 38.2°F3.4°C 81% 5.1 mph NE8.2 kmh NE 10.0 mph16.1 kmh 30.22 in1023.4 mb 0.00 in0.0 mm 0.00 in0.0 mm 0.00 in0.0 mm
07:09 PM 43.5°F6.4°C 38.1°F3.4°C 81% 2.5 mph NE4.0 kmh NE 8.0 mph12.9 kmh 30.22 in1023.4 mb 0.00 in0.0 mm 0.00 in0.0 mm 0.00 in0.0 mm
07:14 PM 43.4°F6.3°C 38.3°F3.5°C 82% 3.0 mph NE4.8 kmh NE 8.0 mph12.9 kmh 30.22 in1023.4 mb 0.00 in0.0 mm 0.00 in0.0 mm 0.00 in0.0 mm
07:19 PM 43.4°F6.3°C 38.3°F3.5°C 82% 3.6 mph NE5.8 kmh NE 8.0 mph12.9 kmh 30.22 in1023.4 mb 0.00 in0.0 mm 0.00 in0.0 mm 0.00 in0.0 mm
07:24 PM 43.3°F6.3°C 38.2°F3.4°C 82% 4.8 mph NE7.7 kmh NE 8.0 mph12.9 kmh 30.23 in1023.7 mb 0.00 in0.0 mm 0.00 in0.0 mm 0.00 in0.0 mm
07:29 PM 43.3°F6.3°C 38.2°F3.4°C 82% 1.2 mph N1.9 kmh N 8.0 mph12.9 kmh 30.23 in1023.7 mb 0.00 in0.0 mm 0.00 in0.0 mm 0.00 in0.0 mm
07:34 PM 43.2°F6.2°C 38.1°F3.4°C 82% 2.6 mph NNE4.2 kmh NNE 8.0 mph12.9 kmh 30.23 in1023.7 mb 0.00 in0.0 mm 0.00 in0.0 mm 0.00 in0.0 mm
07:39 PM 43.2°F6.2°C 38.1°F3.4°C 82% 1.3 mph NNE2.1 kmh NNE 8.0 mph12.9 kmh 30.23 in1023.7 mb 0.00 in0.0 mm 0.00 in0.0 mm 0.00 in0.0 mm
07:44 PM 43.2°F6.2°C 38.1°F3.4°C 82% 4.6 mph NE7.4 kmh NE 8.0 mph12.9 kmh 30.23 in1023.7 mb 0.00 in0.0 mm 0.00 in0.0 mm 0.00 in0.0 mm
07:49 PM 43.2°F6.2°C 37.8°F3.2°C 81% 4.2 mph NE6.8 kmh NE 10.0 mph16.1 kmh 30.23 in1023.7 mb 0.00 in0.0 mm 0.00 in0.0 mm 0.00 in0.0 mm
07:54 PM 43.2°F6.2°C 38.1°F3.4°C 82% 4.7 mph NE7.6 kmh NE 10.0 mph16.1 kmh 30.23 in1023.7 mb 0.00 in0.0 mm 0.00 in0.0 mm 0.00 in0.0 mm
07:59 PM 43.0°F6.1°C 37.9°F3.3°C 82% 4.6 mph NE7.4 kmh NE 10.0 mph16.1 kmh 30.23 in1023.7 mb 0.00 in0.0 mm 0.00 in0.0 mm 0.00 in0.0 mm
08:04 PM 42.8°F6.0°C 38.0°F3.3°C 83% 7.0 mph NE11.3 kmh NE 9.0 mph14.5 kmh 30.23 in1023.7 mb 0.00 in0.0 mm 0.00 in0.0 mm 0.00 in0.0 mm
08:09 PM 42.5°F5.8°C 38.0°F3.3°C 84% 6.3 mph NE10.1 kmh NE 9.0 mph14.5 kmh 30.23 in1023.7 mb 0.00 in0.0 mm 0.00 in0.0 mm 0.00 in0.0 mm
08:14 PM 42.4°F5.8°C 37.9°F3.3°C 84% 3.4 mph NE5.5 kmh NE 9.0 mph14.5 kmh 30.22 in1023.4 mb 0.00 in0.0 mm 0.00 in0.0 mm 0.00 in0.0 mm
08:19 PM 42.4°F5.8°C 38.2°F3.4°C 85% 2.6 mph NE4.2 kmh NE 9.0 mph14.5 kmh 30.23 in1023.7 mb 0.00 in0.0 mm 0.00 in0.0 mm 0.00 in0.0 mm
08:24 PM 42.3°F5.7°C 38.1°F3.4°C 85% 2.0 mph NE3.2 kmh NE 9.0 mph14.5 kmh 30.23 in1023.7 mb 0.00 in0.0 mm 0.00 in0.0 mm 0.00 in0.0 mm
08:29 PM 42.2°F5.7°C 38.0°F3.3°C 85% 3.2 mph NE5.1 kmh NE 7.0 mph11.3 kmh 30.23 in1023.7 mb 0.00 in0.0 mm 0.00 in0.0 mm 0.00 in0.0 mm
08:34 PM 42.0°F5.6°C 38.1°F3.4°C 86% 4.2 mph ENE6.8 kmh ENE 7.0 mph11.3 kmh 30.22 in1023.4 mb 0.00 in0.0 mm 0.00 in0.0 mm 0.00 in0.0 mm
08:39 PM 41.9°F5.5°C 38.0°F3.3°C 86% 6.6 mph NE10.6 kmh NE 11.0 mph17.7 kmh 30.21 in1023.0 mb 0.00 in0.0 mm 0.00 in0.0 mm 0.00 in0.0 mm
08:44 PM 41.9°F5.5°C 38.0°F3.3°C 86% 1.9 mph NE3.1 kmh NE 11.0 mph17.7 kmh 30.22 in1023.4 mb 0.00 in0.0 mm 0.00 in0.0 mm 0.00 in0.0 mm
08:49 PM 41.9°F5.5°C 38.0°F3.3°C 86% 6.8 mph ENE10.9 kmh ENE 11.0 mph17.7 kmh 30.21 in1023.0 mb 0.00 in0.0 mm 0.00 in0.0 mm 0.00 in0.0 mm
08:54 PM 42.0°F5.6°C 38.1°F3.4°C 86% 3.1 mph ENE5.0 kmh ENE 11.0 mph17.7 kmh 30.21 in1023.0 mb 0.00 in0.0 mm 0.00 in0.0 mm 0.00 in0.0 mm
08:59 PM 42.0°F5.6°C 37.8°F3.2°C 85% 2.4 mph E3.9 kmh E 11.0 mph17.7 kmh 30.21 in1023.0 mb 0.00 in0.0 mm 0.00 in0.0 mm 0.00 in0.0 mm
09:04 PM 42.1°F5.6°C 37.9°F3.3°C 85% 7.9 mph ENE12.7 kmh ENE 12.0 mph19.3 kmh 30.20 in1022.7 mb 0.00 in0.0 mm 0.00 in0.0 mm 0.00 in0.0 mm
09:09 PM 42.2°F5.7°C 38.0°F3.3°C 85% 3.8 mph ENE6.1 kmh ENE 12.0 mph19.3 kmh 30.20 in1022.7 mb 0.00 in0.0 mm 0.00 in0.0 mm 0.00 in0.0 mm
09:14 PM 42.3°F5.7°C 37.8°F3.2°C 84% 3.8 mph NE6.1 kmh NE 12.0 mph19.3 kmh 30.21 in1023.0 mb 0.00 in0.0 mm 0.00 in0.0 mm 0.00 in0.0 mm
09:19 PM 42.5°F5.8°C 38.0°F3.3°C 84% 1.4 mph ENE2.3 kmh ENE 12.0 mph19.3 kmh 30.21 in1023.0 mb 0.00 in0.0 mm 0.00 in0.0 mm 0.00 in0.0 mm
09:24 PM 42.5°F5.8°C 37.7°F3.2°C 83% 5.5 mph ENE8.9 kmh ENE 10.0 mph16.1 kmh 30.21 in1023.0 mb 0.00 in0.0 mm 0.00 in0.0 mm 0.00 in0.0 mm
09:29 PM 42.5°F5.8°C 38.0°F3.3°C 84% 4.9 mph ENE7.9 kmh ENE 10.0 mph16.1 kmh 30.21 in1023.0 mb 0.00 in0.0 mm 0.00 in0.0 mm 0.00 in0.0 mm
09:34 PM 42.5°F5.8°C 38.0°F3.3°C 84% 3.0 mph ENE4.8 kmh ENE 10.0 mph16.1 kmh 30.21 in1023.0 mb 0.00 in0.0 mm 0.00 in0.0 mm 0.00 in0.0 mm
09:39 PM 42.5°F5.8°C 38.0°F3.3°C 84% 2.9 mph E4.7 kmh E 10.0 mph16.1 kmh 30.21 in1023.0 mb 0.00 in0.0 mm 0.00 in0.0 mm 0.00 in0.0 mm
09:44 PM 42.5°F5.8°C 38.0°F3.3°C 84% 4.5 mph ENE7.2 kmh ENE 10.0 mph16.1 kmh 30.20 in1022.7 mb 0.00 in0.0 mm 0.00 in0.0 mm 0.00 in0.0 mm
09:49 PM 42.4°F5.8°C 38.2°F3.4°C 85% 5.5 mph ENE8.9 kmh ENE 8.0 mph12.9 kmh 30.19 in1022.4 mb 0.00 in0.0 mm 0.00 in0.0 mm 0.00 in0.0 mm
09:54 PM 42.3°F5.7°C 38.1°F3.4°C 85% 8.1 mph E13.0 kmh E 12.0 mph19.3 kmh 30.19 in1022.4 mb 0.00 in0.0 mm 0.00 in0.0 mm 0.00 in0.0 mm
09:59 PM 42.2°F5.7°C 38.3°F3.5°C 86% 5.3 mph ENE8.5 kmh ENE 12.0 mph19.3 kmh 30.19 in1022.4 mb 0.00 in0.0 mm 0.00 in0.0 mm 0.00 in0.0 mm
10:04 PM 42.1°F5.6°C 38.5°F3.6°C 87% 5.3 mph ENE8.5 kmh ENE 12.0 mph19.3 kmh 30.19 in1022.4 mb 0.00 in0.0 mm 0.00 in0.0 mm 0.00 in0.0 mm
10:09 PM 42.0°F5.6°C 38.4°F3.6°C 87% 3.7 mph ENE6.0 kmh ENE 12.0 mph19.3 kmh 30.19 in1022.4 mb 0.00 in0.0 mm 0.00 in0.0 mm 0.00 in0.0 mm
10:14 PM 42.0°F5.6°C 38.4°F3.6°C 87% 5.3 mph ENE8.5 kmh ENE 10.0 mph16.1 kmh 30.19 in1022.4 mb 0.00 in0.0 mm 0.00 in0.0 mm 0.00 in0.0 mm
10:19 PM 42.1°F5.6°C 38.5°F3.6°C 87% 4.2 mph ENE6.8 kmh ENE 10.0 mph16.1 kmh 30.19 in1022.4 mb 0.00 in0.0 mm 0.00 in0.0 mm 0.00 in0.0 mm
10:24 PM 42.2°F5.7°C 38.6°F3.7°C 87% 2.6 mph ENE4.2 kmh ENE 10.0 mph16.1 kmh 30.18 in1022.0 mb 0.00 in0.0 mm 0.00 in0.0 mm 0.00 in0.0 mm
10:29 PM 42.2°F5.7°C 38.6°F3.7°C 87% 5.5 mph ENE8.9 kmh ENE 11.0 mph17.7 kmh 30.18 in1022.0 mb 0.00 in0.0 mm 0.00 in0.0 mm 0.00 in0.0 mm
10:34 PM 42.1°F5.6°C 38.5°F3.6°C 87% 7.1 mph ENE11.4 kmh ENE 11.0 mph17.7 kmh 30.17 in1021.7 mb 0.00 in0.0 mm 0.00 in0.0 mm 0.00 in0.0 mm
10:39 PM 42.1°F5.6°C 38.5°F3.6°C 87% 5.7 mph ENE9.2 kmh ENE 11.0 mph17.7 kmh 30.17 in1021.7 mb 0.00 in0.0 mm 0.00 in0.0 mm 0.00 in0.0 mm
10:44 PM 42.0°F5.6°C 38.4°F3.6°C 87% 8.8 mph E14.2 kmh E 11.0 mph17.7 kmh 30.17 in1021.7 mb 0.00 in0.0 mm 0.00 in0.0 mm 0.00 in0.0 mm
10:49 PM 42.0°F5.6°C 38.7°F3.7°C 88% 4.5 mph ENE7.2 kmh ENE 11.0 mph17.7 kmh 30.17 in1021.7 mb 0.00 in0.0 mm 0.00 in0.0 mm 0.00 in0.0 mm
10:54 PM 41.9°F5.5°C 38.6°F3.7°C 88% 4.3 mph E6.9 kmh E 12.0 mph19.3 kmh 30.17 in1021.7 mb 0.00 in0.0 mm 0.00 in0.0 mm 0.00 in0.0 mm
10:59 PM 41.9°F5.5°C 38.6°F3.7°C 88% 5.5 mph E8.9 kmh E 12.0 mph19.3 kmh 30.17 in1021.7 mb 0.00 in0.0 mm 0.00 in0.0 mm 0.00 in0.0 mm
11:04 PM 41.9°F5.5°C 38.9°F3.8°C 89% 3.9 mph ENE6.3 kmh ENE 12.0 mph19.3 kmh 30.17 in1021.7 mb 0.00 in0.0 mm 0.00 in0.0 mm 0.00 in0.0 mm
11:09 PM 41.9°F5.5°C 38.9°F3.8°C 89% 6.1 mph ENE9.8 kmh ENE 12.0 mph19.3 kmh 30.17 in1021.7 mb 0.00 in0.0 mm 0.00 in0.0 mm 0.00 in0.0 mm
11:14 PM 42.0°F5.6°C 39.0°F3.9°C 89% 2.6 mph E4.2 kmh E 11.0 mph17.7 kmh 30.17 in1021.7 mb 0.00 in0.0 mm 0.00 in0.0 mm 0.00 in0.0 mm
11:19 PM 42.0°F5.6°C 39.2°F4.0°C 90% 4.6 mph E7.4 kmh E 11.0 mph17.7 kmh 30.17 in1021.7 mb 0.00 in0.0 mm 0.00 in0.0 mm 0.00 in0.0 mm
11:24 PM 42.0°F5.6°C 39.2°F4.0°C 90% 1.9 mph E3.1 kmh E 11.0 mph17.7 kmh 30.17 in1021.7 mb 0.00 in0.0 mm 0.00 in0.0 mm 0.00 in0.0 mm
11:29 PM 42.1°F5.6°C 39.3°F4.1°C 90% 4.8 mph ENE7.7 kmh ENE 10.0 mph16.1 kmh 30.17 in1021.7 mb 0.00 in0.0 mm 0.00 in0.0 mm 0.00 in0.0 mm
11:34 PM 42.1°F5.6°C 39.3°F4.1°C 90% 5.5 mph E8.9 kmh E 10.0 mph16.1 kmh 30.16 in1021.3 mb 0.00 in0.0 mm 0.00 in0.0 mm 0.00 in0.0 mm
11:39 PM 42.1°F5.6°C 39.6°F4.2°C 91% 1.9 mph E3.1 kmh E 10.0 mph16.1 kmh 30.17 in1021.7 mb 0.00 in0.0 mm 0.00 in0.0 mm 0.00 in0.0 mm
11:44 PM 42.1°F5.6°C 39.6°F4.2°C 91% 4.2 mph ENE6.8 kmh ENE 10.0 mph16.1 kmh 30.16 in1021.3 mb 0.00 in0.0 mm 0.00 in0.0 mm 0.00 in0.0 mm
11:49 PM 42.0°F5.6°C 39.8°F4.3°C 92% 3.5 mph ENE5.6 kmh ENE 9.0 mph14.5 kmh 30.17 in1021.7 mb 0.02 in0.5 mm 0.24 in6.1 mm 0.02 in0.5 mm
11:54 PM 42.0°F5.6°C 39.8°F4.3°C 92% 2.7 mph NE4.3 kmh NE 7.0 mph11.3 kmh 30.17 in1021.7 mb 0.02 in0.5 mm 0.00 in0.0 mm 0.02 in0.5 mm
11:58 PM 41.8°F5.4°C 39.9°F4.4°C 93% 4.3 mph NE6.9 kmh NE 7.0 mph11.3 kmh 30.16 in1021.3 mb 0.02 in0.5 mm 0.00 in0.0 mm 0.02 in0.5 mm